Time;durP1;ratioP1;P1;durP2;ratioP2;P2;SDS_P1;SDS_P2;PMS_P1;PMS_P2;Temp;Humidity;BMP_temperature;BMP_pressure;BME280_temperature;BME280_humidity;BME280_pressure;Samples;Min_cycle;Max_cycle;Signal;HPM_P1;HPM_P2
2023/04/16 00:01:58;;;;;;;15.03;9.30;;;;;;;5.21;100.00;100107.36;1473680;88;21477;-84
2023/04/16 00:04:24;;;;;;;14.80;9.93;;;;;;;5.14;100.00;100106.16;1481417;88;21538;-85
2023/04/16 00:06:50;;;;;;;10.80;8.03;;;;;;;5.07;100.00;100107.61;1476956;88;21874;-84
2023/04/16 00:09:16;;;;;;;16.83;10.50;;;;;;;5.05;100.00;100109.50;1477653;88;22071;-84
2023/04/16 00:11:52;;;;;;;15.23;10.93;;;;;;;5.03;100.00;100110.09;1477816;87;22967;-86
2023/04/16 00:14:18;;;;;;;26.37;16.17;;;;;;;4.98;100.00;100107.36;1477639;87;22177;-85
2023/04/16 00:16:44;;;;;;;23.57;14.57;;;;;;;5.02;100.00;100107.12;1480992;87;22068;-85
2023/04/16 00:19:11;;;;;;;11.23;8.17;;;;;;;5.00;100.00;100099.84;1477113;88;22150;-85
2023/04/16 00:21:37;;;;;;;13.37;8.77;;;;;;;5.01;100.00;100102.84;1484526;87;22135;-86
2023/04/16 00:24:03;;;;;;;19.00;11.40;;;;;;;5.00;100.00;100106.40;1484289;87;22049;-84
2023/04/16 00:26:30;;;;;;;16.23;10.90;;;;;;;4.98;100.00;100115.23;1483152;87;22083;-86
2023/04/16 00:28:56;;;;;;;19.00;11.17;;;;;;;4.96;99.91;100113.68;1463800;88;22067;-86
2023/04/16 00:31:31;;;;;;;20.83;12.10;;;;;;;4.91;100.00;100114.02;1467234;88;22098;-86
2023/04/16 00:33:58;;;;;;;11.00;7.87;;;;;;;4.84;99.80;100116.78;1474417;87;22605;-85
2023/04/16 00:36:26;;;;;;;8.90;7.03;;;;;;;4.79;100.00;100120.70;1478030;87;21996;-86
2023/04/16 00:38:54;;;;;;;11.83;8.90;;;;;;;4.73;99.91;100121.53;1481102;87;22240;-86
2023/04/16 00:41:21;;;;;;;13.93;7.93;;;;;;;4.71;99.70;100126.52;1476760;87;22078;-86
2023/04/16 00:43:49;;;;;;;9.33;7.03;;;;;;;4.67;99.68;100127.24;1475546;87;22139;-85
2023/04/16 00:46:25;;;;;;;10.40;7.80;;;;;;;4.63;100.00;100124.51;1478249;87;22200;-85
2023/04/16 00:48:53;;;;;;;11.17;7.77;;;;;;;4.59;100.00;100123.54;1482985;87;22098;-85
2023/04/16 00:51:20;;;;;;;10.93;7.43;;;;;;;4.58;100.00;100125.33;1487446;87;22176;-85
2023/04/16 00:53:47;;;;;;;15.70;9.37;;;;;;;4.59;100.00;100128.30;1494161;87;22075;-86
2023/04/16 00:56:14;;;;;;;19.03;10.83;;;;;;;4.57;100.00;100131.98;1484662;88;22160;-85
2023/04/16 00:58:40;;;;;;;15.90;9.23;;;;;;;4.52;100.00;100135.80;1475478;88;22024;-83
2023/04/16 01:01:06;;;;;;;18.43;10.60;;;;;;;4.41;100.00;100134.46;1475637;88;22140;-88
2023/04/16 01:03:45;;;;;;;13.80;9.67;;;;;;;4.32;100.00;100139.56;1478769;87;22163;-87
2023/04/16 01:06:12;;;;;;;16.33;9.33;;;;;;;4.26;100.00;100139.06;1478908;87;22029;-85
2023/04/16 01:08:38;;;;;;;13.57;8.73;;;;;;;4.25;100.00;100142.61;1492521;88;22080;-87
2023/04/16 01:11:05;;;;;;;9.03;7.70;;;;;;;4.24;100.00;100134.89;1493308;87;22937;-85
2023/04/16 01:13:32;;;;;;;10.37;7.20;;;;;;;4.27;100.00;100138.11;1486408;87;23114;-86
2023/04/16 01:16:00;;;;;;;11.13;7.93;;;;;;;4.28;100.00;100125.84;1478814;88;22090;-84
2023/04/16 01:18:26;;;;;;;11.93;7.33;;;;;;;4.31;100.00;100130.84;1489400;88;22913;-84
2023/04/16 01:20:52;;;;;;;9.80;7.77;;;;;;;4.32;100.00;100133.02;1492684;88;22994;-85
2023/04/16 01:23:18;;;;;;;12.50;8.97;;;;;;;4.29;100.00;100130.98;1490659;87;22081;-85
2023/04/16 01:25:46;;;;;;;10.37;8.17;;;;;;;4.31;100.00;100133.47;1483126;88;22211;-84
2023/04/16 01:28:30;;;;;;;10.10;7.17;;;;;;;4.34;100.00;100137.16;1488568;87;22083;-83
2023/04/16 01:30:57;;;;;;;9.93;7.10;;;;;;;4.36;100.00;100127.41;1478299;87;22098;-84
2023/04/16 01:33:23;;;;;;;12.40;8.17;;;;;;;4.37;100.00;100134.80;1484265;88;22299;-86
2023/04/16 01:35:49;;;;;;;9.87;7.23;;;;;;;4.36;100.00;100131.34;1458940;86;23510;-82
2023/04/16 01:38:16;;;;;;;8.00;6.33;;;;;;;4.34;100.00;100138.48;1489658;88;23085;-85
2023/04/16 01:45:27;;;;;;;11.67;7.87;;;;;;;4.22;100.00;100128.92;1397270;93;22272;-85
2023/04/16 01:47:54;;;;;;;13.63;8.67;;;;;;;4.20;100.00;100149.14;1404423;93;22180;-87
2023/04/16 01:50:21;;;;;;;14.17;8.83;;;;;;;4.12;100.00;100147.11;1403395;93;22226;-86
2023/04/16 01:52:47;;;;;;;12.07;9.20;;;;;;;4.10;100.00;100132.45;1400410;93;22122;-85
2023/04/16 01:55:13;;;;;;;9.30;7.10;;;;;;;4.16;100.00;100138.06;1388314;93;22188;-84
2023/04/16 01:57:40;;;;;;;9.23;6.73;;;;;;;4.20;100.00;100139.97;1396988;93;23144;-84
2023/04/16 02:00:07;;;;;;;9.97;7.67;;;;;;;4.20;100.00;100139.97;1402929;93;22349;-84
2023/04/16 02:02:35;;;;;;;8.43;6.33;;;;;;;4.20;100.00;100132.98;1403008;93;22237;-83
2023/04/16 02:05:02;;;;;;;7.13;6.03;;;;;;;4.27;100.00;100142.52;1407969;93;22368;-83
2023/04/16 02:07:30;;;;;;;10.13;7.33;;;;;;;4.28;100.00;100145.01;1401034;93;23085;-85
2023/04/16 02:09:57;;;;;;;7.17;5.80;;;;;;;4.29;100.00;100145.86;1395940;93;22191;-84
2023/04/16 02:12:23;;;;;;;8.00;6.67;;;;;;;4.24;100.00;100134.89;1379318;93;22228;-83
2023/04/16 02:14:49;;;;;;;9.40;7.60;;;;;;;4.19;100.00;100131.77;1407359;93;22220;-87
2023/04/16 02:17:16;;;;;;;12.00;7.43;;;;;;;4.16;100.00;100137.23;1395919;93;22166;-85
2023/04/16 02:19:42;;;;;;;8.77;7.30;;;;;;;4.15;100.00;100135.58;1397527;88;22359;-84
2023/04/16 02:22:08;;;;;;;8.40;7.20;;;;;;;4.09;100.00;100131.63;1471278;88;23070;-82
2023/04/16 02:24:34;;;;;;;7.50;6.07;;;;;;;4.06;100.00;100133.16;1447098;88;22079;-85
2023/04/16 02:27:01;;;;;;;8.57;5.93;;;;;;;4.04;100.00;100128.50;1470537;88;22179;-84
2023/04/16 02:29:27;;;;;;;9.13;6.00;;;;;;;4.06;100.00;100132.68;1465990;88;22989;-85
2023/04/16 02:31:54;;;;;;;8.13;6.37;;;;;;;4.08;100.00;100129.94;1464257;88;22863;-85
2023/04/16 02:34:20;;;;;;;8.83;6.60;;;;;;;4.08;100.00;100129.94;1467832;88;22293;-84
2023/04/16 02:36:46;;;;;;;8.07;6.13;;;;;;;4.07;100.00;100139.58;1470594;88;22176;-83
2023/04/16 02:39:12;;;;;;;7.90;5.77;;;;;;;3.95;100.00;100124.78;1468855;88;23151;-86
2023/04/16 02:41:39;;;;;;;8.87;6.70;;;;;;;3.95;100.00;100124.78;1470162;88;22079;-86
2023/04/16 02:44:05;;;;;;;7.53;6.03;;;;;;;3.77;100.00;100139.19;1471382;88;22102;-87
2023/04/16 02:46:31;;;;;;;8.07;7.13;;;;;;;3.76;100.00;100136.22;1464705;88;22035;-87
2023/04/16 02:48:58;;;;;;;8.47;7.00;;;;;;;3.72;100.00;100143.95;1472243;88;22498;-87
2023/04/16 02:51:25;;;;;;;8.53;6.67;;;;;;;3.67;100.00;100144.74;1453958;88;21819;-85
2023/04/16 02:53:51;;;;;;;9.07;6.90;;;;;;;3.67;100.00;100144.74;1471261;88;21959;-85
2023/04/16 02:56:17;;;;;;;9.73;7.87;;;;;;;3.60;100.00;100153.03;1468178;88;21873;-87
2023/04/16 02:58:43;;;;;;;13.43;6.97;;;;;;;3.60;100.00;100153.03;1471746;88;22026;-87
2023/04/16 03:01:09;;;;;;;10.30;7.97;;;;;;;3.59;100.00;100157.89;1468430;88;21797;-87
2023/04/16 03:03:35;;;;;;;8.10;6.80;;;;;;;3.56;100.00;100157.28;1458334;88;21906;-82
2023/04/16 03:06:02;;;;;;;8.70;7.13;;;;;;;3.54;100.00;100160.02;1449642;88;21841;-86
2023/04/16 03:08:28;;;;;;;10.43;6.43;;;;;;;3.57;100.00;100160.28;1468793;88;22249;-87
2023/04/16 03:10:54;;;;;;;9.87;7.17;;;;;;;3.57;100.00;100160.28;1474805;88;22088;-88
2023/04/16 03:13:20;;;;;;;9.33;7.50;;;;;;;3.55;100.00;100162.99;1470591;88;22198;-87
2023/04/16 03:15:49;;;;;;;8.07;6.57;;;;;;;3.55;100.00;100162.99;1467324;88;22059;-88
2023/04/16 03:18:15;;;;;;;6.80;6.03;;;;;;;3.54;100.00;100169.63;1470423;88;21791;-87
2023/04/16 03:20:42;;;;;;;6.87;5.90;;;;;;;3.50;100.00;100165.09;1465586;88;22241;-87
2023/04/16 03:23:08;;;;;;;9.47;6.70;;;;;;;3.45;100.00;100165.88;1471265;88;22787;-88
2023/04/16 03:25:34;;;;;;;10.37;8.23;;;;;;;3.45;100.00;100165.88;1445774;88;23196;-88
2023/04/16 03:28:02;;;;;;;12.67;8.40;;;;;;;3.42;100.00;100163.48;1476967;88;21911;-89
2023/04/16 03:30:28;;;;;;;12.27;9.20;;;;;;;3.43;100.00;100158.63;1461278;88;22810;-87
2023/04/16 03:32:54;;;;;;;11.67;9.13;;;;;;;3.43;100.00;100158.63;1471873;88;22271;-87
2023/04/16 03:35:20;;;;;;;9.90;8.90;;;;;;;3.55;100.00;100163.95;1460823;88;21959;-87
2023/04/16 03:37:47;;;;;;;11.77;9.03;;;;;;;3.61;100.00;100170.88;1450754;88;22294;-86
2023/04/16 03:40:13;;;;;;;10.03;8.90;;;;;;;3.61;100.00;100170.88;1472141;88;21905;-89
2023/04/16 03:42:39;;;;;;;11.60;9.63;;;;;;;3.65;100.00;100176.72;1461837;88;22802;-85
2023/04/16 03:45:08;;;;;;;12.83;9.60;;;;;;;3.70;100.00;100172.00;1454504;88;22099;-84
2023/04/16 03:47:34;;;;;;;13.40;9.70;;;;;;;3.75;100.00;100176.44;1467839;88;22114;-85
2023/04/16 03:50:01;;;;;;;11.77;8.63;;;;;;;3.82;100.00;100166.70;1465327;88;22137;-85
2023/04/16 03:52:27;;;;;;;11.67;8.67;;;;;;;3.82;100.00;100166.70;1467543;88;22054;-85
2023/04/16 03:54:53;;;;;;;10.93;9.00;;;;;;;3.90;100.00;100174.02;1472270;88;22172;-85
2023/04/16 03:57:19;;;;;;;10.80;8.20;;;;;;;3.90;100.00;100171.41;1477882;88;22592;-86
2023/04/16 03:59:45;;;;;;;9.27;7.70;;;;;;;3.90;100.00;100177.59;1450259;88;21944;-85
2023/04/16 04:02:12;;;;;;;11.33;9.20;;;;;;;3.89;100.00;100177.59;1446701;88;22139;-86
2023/04/16 04:04:38;;;;;;;13.73;9.33;;;;;;;3.93;100.00;100179.03;1473652;88;22228;-85
2023/04/16 04:07:04;;;;;;;10.70;8.60;;;;;;;3.96;100.00;100182.73;1454235;88;22078;-84
2023/04/16 04:09:30;;;;;;;12.70;8.10;;;;;;;4.01;100.00;100183.25;1469467;88;22024;-84
2023/04/16 04:11:56;;;;;;;12.13;9.20;;;;;;;4.04;100.00;100188.73;1466367;88;23155;-87
2023/04/16 04:14:22;;;;;;;11.73;8.27;;;;;;;4.07;100.00;100193.27;1468909;88;21433;-86
2023/04/16 04:16:48;;;;;;;9.63;8.37;;;;;;;4.13;100.00;100197.70;1470964;88;22194;-85
2023/04/16 04:19:14;;;;;;;10.83;8.13;;;;;;;4.19;100.00;100195.95;1467549;88;22080;-86
2023/04/16 04:21:41;;;;;;;11.40;7.27;;;;;;;4.23;100.00;100201.30;1449732;88;22916;-86
2023/04/16 04:24:07;;;;;;;13.60;8.63;;;;;;;4.28;100.00;100200.50;1473566;88;22095;-87
2023/04/16 04:26:33;;;;;;;11.43;8.23;;;;;;;4.33;100.00;100200.17;1470282;88;22062;-86
2023/04/16 04:28:59;;;;;;;10.43;8.63;;;;;;;4.39;100.00;100197.93;1478616;88;22985;-86
2023/04/16 04:31:25;;;;;;;12.97;8.87;;;;;;;4.46;100.00;100200.47;1470043;88;22061;-86
2023/04/16 04:33:52;;;;;;;10.97;8.00;;;;;;;4.52;100.00;100207.88;1476469;88;22047;-86
2023/04/16 04:36:18;;;;;;;9.57;7.27;;;;;;;4.55;100.00;100208.12;1471369;88;22109;-83
2023/04/16 04:38:44;;;;;;;9.70;7.70;;;;;;;4.60;100.00;100209.91;1502658;88;22205;-82
2023/04/16 04:41:11;;;;;;;9.67;7.73;;;;;;;4.69;100.00;100216.24;1454404;88;22295;-85
2023/04/16 04:43:37;;;;;;;14.77;9.37;;;;;;;4.74;100.00;100214.12;1470833;88;22073;-84
2023/04/16 04:46:03;;;;;;;8.73;7.43;;;;;;;4.87;100.00;100209.63;1472863;88;23052;-86
2023/04/16 04:48:29;;;;;;;9.37;7.03;;;;;;;4.87;100.00;100209.63;1470280;88;22320;-86
2023/04/16 04:50:56;;;;;;;20.73;8.50;;;;;;;5.03;100.00;100216.33;1463551;88;21293;-85
2023/04/16 04:53:22;;;;;;;12.20;7.80;;;;;;;5.18;100.00;100220.41;1466801;88;21418;-86
2023/04/16 04:55:49;;;;;;;8.83;6.80;;;;;;;5.30;100.00;100219.46;1466313;88;21374;-85
2023/04/16 04:58:15;;;;;;;9.33;7.30;;;;;;;5.38;100.00;100217.08;1466136;88;22299;-88
2023/04/16 05:00:41;;;;;;;9.27;6.63;;;;;;;5.46;100.00;100216.95;1471048;88;21496;-86
2023/04/16 05:03:11;;;;;;;8.00;6.70;;;;;;;5.54;100.00;100217.19;1471814;88;21345;-87
2023/04/16 05:05:40;;;;;;;7.57;6.63;;;;;;;5.63;100.00;100219.08;1463696;88;21456;-86
2023/04/16 05:08:06;;;;;;;9.13;6.93;;;;;;;5.76;100.00;100226.36;1469543;88;21382;-87
2023/04/16 05:10:33;;;;;;;9.30;6.10;;;;;;;5.90;100.00;100234.46;1470227;88;21556;-85
2023/04/16 05:12:59;;;;;;;8.17;6.63;;;;;;;6.03;100.00;100231.22;1450071;88;21471;-86
2023/04/16 05:15:25;;;;;;;6.67;5.97;;;;;;;6.13;100.00;100235.28;1466526;88;22453;-85
2023/04/16 05:17:51;;;;;;;11.10;8.40;;;;;;;6.23;100.00;100240.13;1474847;88;21382;-86
2023/04/16 05:20:17;;;;;;;8.00;6.83;;;;;;;6.37;100.00;100238.19;1469066;88;21338;-87
2023/04/16 05:22:44;;;;;;;7.33;5.90;;;;;;;6.46;100.00;100234.80;1454701;88;21411;-86
2023/04/16 05:25:10;;;;;;;12.27;8.63;;;;;;;6.50;100.00;100233.57;1471532;88;21329;-86
2023/04/16 05:27:37;;;;;;;34.27;21.33;;;;;;;6.60;100.00;100233.18;1463389;88;21388;-88
2023/04/16 05:30:04;;;;;;;388.07;201.20;;;;;;;6.73;100.00;100230.36;1473336;88;22247;-87
2023/04/16 05:32:31;;;;;;;248.07;144.17;;;;;;;6.88;100.00;100236.16;1475161;88;21492;-85
2023/04/16 05:34:57;;;;;;;65.57;32.03;;;;;;;7.02;100.00;100233.20;1466893;88;21594;-82
2023/04/16 05:37:23;;;;;;;22.27;13.57;;;;;;;7.19;100.00;100233.92;1468714;88;21464;-80
2023/04/16 05:39:50;;;;;;;33.67;25.30;;;;;;;7.29;100.00;100237.91;1473962;88;21566;-84
2023/04/16 05:42:16;;;;;;;76.73;53.73;;;;;;;7.38;100.00;100241.55;1445855;88;21433;-83
2023/04/16 05:44:43;;;;;;;129.70;87.10;;;;;;;7.49;100.00;100245.42;1470216;88;21374;-83
2023/04/16 05:47:09;;;;;;;105.37;69.30;;;;;;;7.59;100.00;100242.33;1475078;88;22313;-85
2023/04/16 05:49:38;;;;;;;18.13;13.57;;;;;;;7.68;100.00;100249.91;1470669;88;21425;-86
2023/04/16 05:52:06;;;;;;;14.27;11.03;;;;;;;7.81;100.00;100240.47;1467761;88;21390;-86
2023/04/16 05:54:32;;;;;;;22.90;12.97;;;;;;;7.96;100.00;100245.70;1471465;88;21426;-86
2023/04/16 05:57:00;;;;;;;26.23;17.20;;;;;;;8.11;100.00;100249.64;1475694;88;21293;-84
2023/04/16 05:59:28;;;;;;;109.57;59.83;;;;;;;8.23;100.00;100252.12;1465432;88;21426;-84
2023/04/16 06:01:54;;;;;;;133.47;67.33;;;;;;;8.37;100.00;100251.73;1471643;88;21502;-82
2023/04/16 06:04:20;;;;;;;38.60;24.33;;;;;;;8.52;100.00;100254.84;1447824;88;22382;-82
2023/04/16 06:06:46;;;;;;;25.73;16.67;;;;;;;8.63;100.00;100250.76;1448871;88;21330;-82
2023/04/16 06:09:12;;;;;;;43.87;26.17;;;;;;;8.81;100.00;100253.52;1443593;88;21426;-83
2023/04/16 06:11:38;;;;;;;10.20;7.37;;;;;;;8.98;100.00;100244.88;1458250;88;22188;-84
2023/04/16 06:14:05;;;;;;;13.50;7.80;;;;;;;9.16;100.00;100245.47;1467391;88;21396;-84
2023/04/16 06:16:31;;;;;;;11.47;6.97;;;;;;;9.34;100.00;100249.51;1464579;88;21382;-84
2023/04/16 06:18:57;;;;;;;15.30;11.07;;;;;;;9.47;99.58;100248.22;1475199;88;22239;-85
2023/04/16 06:21:25;;;;;;;24.53;16.03;;;;;;;9.57;97.95;100246.84;1470391;88;21381;-83
2023/04/16 06:23:51;;;;;;;28.53;15.00;;;;;;;9.68;97.45;100249.30;1473405;88;22276;-83
2023/04/16 06:26:17;;;;;;;15.87;10.70;;;;;;;9.85;99.23;100245.55;1470862;88;21454;-84
2023/04/16 06:28:43;;;;;;;18.07;12.97;;;;;;;10.03;99.72;100242.94;1470111;88;21323;-82
2023/04/16 06:31:11;;;;;;;28.50;18.87;;;;;;;10.22;97.05;100237.53;1471951;88;21390;-81
2023/04/16 06:33:37;;;;;;;16.27;11.50;;;;;;;10.41;95.05;100243.19;1474086;88;21493;-83
2023/04/16 06:36:04;;;;;;;48.83;30.17;;;;;;;10.61;95.63;100246.51;1473290;88;21388;-82
2023/04/16 06:38:30;;;;;;;24.83;16.13;;;;;;;10.77;90.63;100245.33;1472326;88;22364;-82
2023/04/16 06:40:57;;;;;;;52.60;30.77;;;;;;;10.89;91.27;100244.59;1466751;88;21659;-80
2023/04/16 06:43:23;;;;;;;18.27;11.77;;;;;;;11.03;90.93;100245.86;1473245;88;21486;-80
2023/04/16 06:45:50;;;;;;;9.30;6.93;;;;;;;11.17;90.44;100246.62;1474809;88;21471;-82
2023/04/16 06:48:16;;;;;;;12.53;8.20;;;;;;;11.36;90.60;100250.03;1474117;88;22461;-82
2023/04/16 06:50:42;;;;;;;14.37;9.10;;;;;;;11.50;89.77;100252.09;1449026;88;22350;-82
2023/04/16 06:53:08;;;;;;;12.60;8.27;;;;;;;11.61;88.70;100257.13;1468609;88;21382;-83
2023/04/16 06:55:35;;;;;;;11.00;7.50;;;;;;;11.74;88.14;100260.17;1472052;88;22284;-81
2023/04/16 06:58:01;;;;;;;16.70;13.67;;;;;;;11.85;85.75;100253.77;1473537;88;21544;-83
2023/04/16 07:00:27;;;;;;;11.87;8.33;;;;;;;11.99;82.84;100250.17;1468240;88;21448;-82
2023/04/16 07:02:53;;;;;;;12.00;9.33;;;;;;;12.08;83.09;100254.01;1468980;88;22464;-81
2023/04/16 07:05:20;;;;;;;9.70;6.87;;;;;;;12.17;80.68;100248.26;1474679;88;21416;-80
2023/04/16 07:07:46;;;;;;;11.87;6.70;;;;;;;12.31;81.30;100249.42;1467697;88;21529;-81
2023/04/16 07:10:12;;;;;;;8.30;5.30;;;;;;;12.40;78.34;100253.27;1469099;88;22357;-81
2023/04/16 07:12:39;;;;;;;6.77;5.17;;;;;;;12.52;79.30;100245.00;1464829;88;22504;-81
2023/04/16 07:15:07;;;;;;;7.83;6.07;;;;;;;12.61;79.47;100247.48;1468807;88;21485;-80
2023/04/16 07:17:33;;;;;;;7.00;5.93;;;;;;;12.73;79.98;100251.96;1392510;88;22270;-80
2023/04/16 07:19:59;;;;;;;6.53;4.87;;;;;;;12.79;78.71;100253.95;1451478;88;21449;-81
2023/04/16 07:22:25;;;;;;;8.50;5.30;;;;;;;12.87;77.95;100251.80;1467177;88;21426;-82
2023/04/16 07:24:51;;;;;;;8.60;5.03;;;;;;;12.97;78.28;100255.60;1469319;88;22298;-81
2023/04/16 07:27:17;;;;;;;7.77;4.67;;;;;;;13.12;78.34;100251.77;1470446;88;22336;-81
2023/04/16 07:29:44;;;;;;;8.03;5.30;;;;;;;13.19;76.28;100253.59;1470069;88;21547;-81
2023/04/16 07:32:12;;;;;;;7.73;5.13;;;;;;;13.40;77.02;100250.91;1448666;88;21537;-80
2023/04/16 07:34:38;;;;;;;9.10;6.27;;;;;;;13.44;74.38;100253.08;1470945;88;21537;-81
2023/04/16 07:37:04;;;;;;;8.80;5.77;;;;;;;13.62;75.93;100251.52;1466560;88;21344;-80
2023/04/16 07:39:30;;;;;;;8.43;5.10;;;;;;;13.79;76.24;100248.30;1446778;88;22357;-81
2023/04/16 07:41:57;;;;;;;7.43;4.33;;;;;;;13.59;71.62;100247.05;1468600;88;22321;-80
2023/04/16 07:44:23;;;;;;;6.63;4.50;;;;;;;13.76;73.32;100249.47;1468533;88;21388;-79
2023/04/16 07:46:49;;;;;;;14.20;6.23;;;;;;;13.81;70.49;100252.95;1467478;88;21360;-79
2023/04/16 07:49:15;;;;;;;5.97;4.20;;;;;;;13.64;70.42;100250.03;1466440;88;22402;-80
2023/04/16 07:51:42;;;;;;;8.10;5.23;;;;;;;13.58;71.02;100250.69;1465481;88;21441;-83
2023/04/16 07:54:09;;;;;;;8.90;4.33;;;;;;;13.65;72.22;100250.34;1468798;88;21374;-80
2023/04/16 07:56:35;;;;;;;6.73;4.87;;;;;;;13.77;71.42;100251.63;1473008;88;22377;-82
2023/04/16 07:59:01;;;;;;;9.53;7.13;;;;;;;13.95;71.67;100245.58;1467692;88;21403;-82
2023/04/16 08:01:27;;;;;;;7.73;4.63;;;;;;;13.89;69.60;100246.24;1465215;88;21822;-80
2023/04/16 08:03:54;;;;;;;12.27;4.53;;;;;;;13.97;68.47;100244.88;1468241;88;21499;-81
2023/04/16 08:06:20;;;;;;;8.13;5.47;;;;;;;13.93;68.19;100243.58;1470383;88;22558;-82
2023/04/16 08:08:46;;;;;;;6.90;5.10;;;;;;;13.96;67.62;100235.25;1471889;88;21441;-80
2023/04/16 08:11:12;;;;;;;6.30;4.77;;;;;;;14.03;68.97;100238.54;1468846;88;21477;-81
2023/04/16 08:13:39;;;;;;;6.53;4.60;;;;;;;14.14;67.83;100234.16;1464137;88;21322;-82
2023/04/16 08:16:05;;;;;;;8.70;5.00;;;;;;;14.35;66.12;100240.99;1469286;88;21588;-82
2023/04/16 08:18:32;;;;;;;6.97;4.10;;;;;;;14.61;67.16;100238.00;1467882;88;21419;-79
2023/04/16 08:20:58;;;;;;;8.80;4.63;;;;;;;14.68;66.06;100240.80;1469432;88;21580;-81
2023/04/16 08:23:24;;;;;;;7.70;4.53;;;;;;;14.80;66.82;100241.20;1466075;88;21367;-80
2023/04/16 08:25:51;;;;;;;8.53;3.47;;;;;;;15.06;65.71;100236.30;1445164;88;21570;-82
2023/04/16 08:28:17;;;;;;;5.47;3.77;;;;;;;15.11;62.30;100235.77;1428041;88;21500;-78
2023/04/16 08:30:44;;;;;;;5.83;3.60;;;;;;;15.23;64.97;100236.14;1465489;88;21853;-78
2023/04/16 08:33:12;;;;;;;7.10;5.07;;;;;;;15.35;62.88;100240.83;1465500;88;22385;-78
2023/04/16 08:35:40;;;;;;;7.53;3.97;;;;;;;15.65;64.62;100239.98;1476618;88;21396;-79
2023/04/16 08:38:06;;;;;;;7.03;3.20;;;;;;;15.86;63.57;100240.62;1470654;88;21537;-78
2023/04/16 08:40:38;;;;;;;7.23;3.60;;;;;;;15.82;59.59;100240.66;1466671;88;21456;-79
2023/04/16 08:43:12;;;;;;;5.97;3.90;;;;;;;16.13;62.46;100226.55;1554097;88;21220;-78
2023/04/16 08:45:41;;;;;;;5.73;3.67;;;;;;;16.29;61.82;100236.70;1554099;88;21168;-78
2023/04/16 08:48:11;;;;;;;5.20;4.17;;;;;;;16.52;61.34;100232.00;1447405;88;21426;-78
2023/04/16 08:50:39;;;;;;;5.43;3.40;;;;;;;16.55;60.33;100232.12;1478091;88;21381;-78
2023/04/16 08:53:09;;;;;;;5.30;3.47;;;;;;;16.51;59.09;100232.99;1468003;88;21352;-78
2023/04/16 08:55:41;;;;;;;7.10;3.30;;;;;;;16.57;58.18;100228.73;1465360;88;21448;-79
2023/04/16 08:58:14;;;;;;;6.50;3.50;;;;;;;16.66;59.03;100228.42;1390340;90;21301;-79
2023/04/16 09:00:42;;;;;;;3.90;3.10;;;;;;;16.87;59.32;100222.25;1554229;88;21213;-78
2023/04/16 09:03:09;;;;;;;6.73;3.97;;;;;;;17.12;58.71;100219.98;1392913;88;21432;-79
2023/04/16 09:05:39;;;;;;;5.23;4.07;;;;;;;17.10;57.29;100226.53;1375241;90;21271;-78
2023/04/16 09:08:06;;;;;;;5.17;3.33;;;;;;;16.91;55.84;100221.34;1395633;88;21279;-78
2023/04/16 09:10:33;;;;;;;5.40;3.37;;;;;;;17.18;57.34;100222.89;1460322;88;21389;-77
2023/04/16 09:12:59;;;;;;;4.43;3.07;;;;;;;17.32;54.96;100224.60;1473390;88;22476;-78
2023/04/16 09:15:26;;;;;;;4.17;3.58;;;;;;;17.08;54.47;100224.04;1470611;88;21664;-78
2023/04/16 09:17:53;;;;;;;4.22;2.90;;;;;;;16.94;56.44;100222.29;1469500;88;21611;-78
2023/04/16 09:20:20;;;;;;;5.00;4.07;;;;;;;17.14;54.91;100224.59;1473163;88;21404;-78
2023/04/16 09:22:46;;;;;;;4.33;3.07;;;;;;;17.19;55.67;100225.88;1470429;88;21540;-78
2023/04/16 09:25:12;;;;;;;6.42;2.95;;;;;;;17.36;58.07;100233.91;1471794;88;22450;-78
2023/04/16 09:27:39;;;;;;;6.85;3.83;;;;;;;17.36;56.94;100230.71;1464590;88;21360;-78
2023/04/16 09:30:21;;;;;;;3.90;3.20;;;;;;;17.50;56.68;100224.11;1478747;88;22291;-78
2023/04/16 09:32:48;;;;;;;4.95;3.50;;;;;;;17.49;55.83;100229.98;1478737;88;21389;-78
2023/04/16 09:35:15;;;;;;;6.85;3.60;;;;;;;17.78;58.55;100229.40;1475015;88;21440;-78
2023/04/16 09:37:41;;;;;;;5.08;3.15;;;;;;;18.17;57.94;100228.72;1475020;88;21485;-80
2023/04/16 09:40:08;;;;;;;5.62;3.95;;;;;;;18.17;54.34;100222.55;1469421;88;21628;-77
2023/04/16 09:42:38;;;;;;;4.65;3.42;;;;;;;18.39;57.07;100224.04;1442172;88;21404;-78
2023/04/16 09:45:06;;;;;;;6.15;3.20;;;;;;;18.67;54.25;100227.89;1469975;88;21432;-78
2023/04/16 09:47:42;;;;;;;9.80;3.33;;;;;;;18.89;52.18;100223.16;1456167;88;21582;-79
2023/04/16 09:50:11;;;;;;;3.85;2.60;;;;;;;18.91;52.07;100228.34;1475464;88;22963;-79
2023/04/16 09:52:37;;;;;;;5.12;3.40;;;;;;;19.07;51.27;100220.36;1472817;88;21455;-79
2023/04/16 09:55:05;;;;;;;4.58;2.80;;;;;;;19.09;49.63;100219.65;1464755;88;21857;-79
2023/04/16 09:57:31;;;;;;;32.30;7.92;;;;;;;19.14;47.97;100222.02;1467512;88;22410;-79
2023/04/16 10:00:09;;;;;;;24.43;5.12;;;;;;;19.17;49.29;100222.12;1470597;88;22284;-78
2023/04/16 10:02:37;;;;;;;4.78;3.65;;;;;;;19.33;49.12;100216.31;1468430;88;21684;-78
2023/04/16 10:05:05;;;;;;;4.47;3.15;;;;;;;19.08;45.65;100218.01;1471502;88;21463;-79
2023/04/16 10:07:35;;;;;;;3.17;2.67;;;;;;;18.89;48.24;100208.41;1467153;88;21390;-79
2023/04/16 10:10:03;;;;;;;4.45;2.72;;;;;;;19.05;48.07;100211.72;1471636;88;21418;-80
2023/04/16 10:12:31;;;;;;;10.35;3.12;;;;;;;19.01;45.97;100211.30;1447304;88;21419;-79
2023/04/16 10:14:57;;;;;;;3.52;2.25;;;;;;;19.02;47.01;100212.11;1463577;88;22386;-79
2023/04/16 10:17:24;;;;;;;7.20;2.87;;;;;;;18.79;44.71;100203.16;1470715;88;21441;-80
2023/04/16 10:19:51;;;;;;;6.25;2.30;;;;;;;19.04;47.93;100207.38;1471300;88;21286;-80
2023/04/16 10:22:17;;;;;;;3.47;2.15;;;;;;;19.35;46.45;100212.89;1467917;88;21537;-80
2023/04/16 10:24:46;;;;;;;2.30;2.10;;;;;;;19.56;44.81;100211.81;1469749;88;21397;-78
2023/04/16 10:27:12;;;;;;;5.08;2.40;;;;;;;19.68;44.19;100203.11;1391724;88;21280;-79
2023/04/16 10:30:14;;;;;;;5.03;3.17;;;;;;;19.78;46.65;100197.59;1394759;88;21419;-79
2023/04/16 10:32:41;;;;;;;4.72;1.82;;;;;;;19.96;45.40;100200.91;1467013;88;21708;-79
2023/04/16 10:35:08;;;;;;;2.90;2.47;;;;;;;19.80;41.11;100202.24;1467464;88;21455;-79
2023/04/16 10:37:36;;;;;;;4.10;2.60;;;;;;;19.48;43.32;100201.30;1469515;88;21411;-79
2023/04/16 10:40:22;;;;;;;3.80;2.35;;;;;;;19.17;44.26;100195.30;1444757;88;22727;-79
2023/04/16 10:42:57;;;;;;;4.67;2.55;;;;;;;19.45;45.47;100195.52;1554231;88;21205;-79
2023/04/16 10:45:34;;;;;;;5.67;2.47;;;;;;;19.77;43.99;100201.33;1552831;88;21560;-79
2023/04/16 10:48:08;;;;;;;3.35;2.58;;;;;;;19.63;43.95;100194.86;1390417;91;21316;-80
2023/04/16 10:50:36;;;;;;;5.83;2.52;;;;;;;19.66;43.18;100198.48;1389937;90;21567;-79
2023/04/16 10:53:26;;;;;;;3.83;1.93;;;;;;;19.79;45.34;100199.75;1499867;88;23153;-79
2023/04/16 10:56:15;;;;;;;3.47;2.35;;;;;;;20.06;46.17;100196.44;1390720;88;21307;-79
2023/04/16 10:58:40;;;;;;;3.05;2.45;;;;;;;19.70;44.83;100197.83;1393588;89;21494;-79
2023/04/16 11:01:12;;;;;;;3.72;1.77;;;;;;;19.90;44.23;100194.23;1393895;88;21272;-79
2023/04/16 11:03:45;;;;;;;3.87;2.15;;;;;;;19.83;42.16;100195.63;1389525;92;21463;-78
2023/04/16 11:06:16;;;;;;;7.20;2.60;;;;;;;19.64;43.21;100192.47;1554679;88;21362;-79
2023/04/16 11:08:46;;;;;;;2.47;2.15;;;;;;;19.57;44.72;100189.30;1554048;88;21311;-79
2023/04/16 11:11:12;;;;;;;2.85;2.30;;;;;;;19.64;45.22;100193.28;1394086;88;21272;-79
2023/04/16 11:13:43;;;;;;;2.30;1.85;;;;;;;19.91;46.19;100188.67;1381043;90;22277;-78
2023/04/16 11:16:10;;;;;;;4.53;2.30;;;;;;;20.03;44.54;100184.78;1441547;88;21308;-78
2023/04/16 11:18:39;;;;;;;6.15;2.10;;;;;;;20.64;44.21;100173.41;1394072;88;21404;-78
2023/04/16 11:21:10;;;;;;;5.85;2.58;;;;;;;20.64;44.21;100173.41;1397128;88;21345;-78
2023/04/16 11:23:50;;;;;;;2.60;2.17;;;;;;;20.27;42.95;100181.83;1395805;88;21264;-78
2023/04/16 11:26:25;;;;;;;2.20;1.77;;;;;;;20.60;43.87;100181.62;1470698;88;21381;-78
2023/04/16 11:28:54;;;;;;;3.20;2.05;;;;;;;20.19;41.91;100180.22;1465749;88;21404;-81